ePrivacy and GPDR Cookie Consent by Cookie Consent
EmailTwitter


Observations de surface / France / LFMP (07747)

Régions: Québec | Canada | États-Unis | Europe | France | UK | Ailleurs
Station
Affichage
Infos & localisation pour LFMP (07747) | Aide pour décoder les METARs

Observations prises le 2024-04-21 à 05H30 UTC à PERPIGNAN/RIVESA, FR (LFMP)

Température: 7.0 Celsius

Point de rosée: -1.0 Celsius

Humidité relative: 57%

Vents: Variable à 4 km/h ou 2 noeuds.

Pression au niveau moyen de la mer: 101.80 kilopascals.

Observation METAR:

LFMP 210530Z AUTO VRB02KT CAVOK 07/M01 Q1018 NOSIG=